sensor_id;sensor_type;location;lat;lon;timestamp;P1;durP1;ratioP1;P2;durP2;ratioP2
21233;SDS011;10774;42.178;26.578;2023-02-17T00:01:59;53.28;;;34.05;;
21233;SDS011;10774;42.178;26.578;2023-02-17T00:04:28;54.63;;;34.20;;
21233;SDS011;10774;42.178;26.578;2023-02-17T00:06:55;51.70;;;33.33;;
21233;SDS011;10774;42.178;26.578;2023-02-17T00:09:20;50.85;;;33.33;;
21233;SDS011;10774;42.178;26.578;2023-02-17T00:11:45;53.10;;;32.78;;
21233;SDS011;10774;42.178;26.578;2023-02-17T00:14:11;53.00;;;32.95;;
21233;SDS011;10774;42.178;26.578;2023-02-17T00:16:37;55.80;;;33.67;;
21233;SDS011;10774;42.178;26.578;2023-02-17T00:19:03;49.70;;;30.58;;
21233;SDS011;10774;42.178;26.578;2023-02-17T00:21:47;55.92;;;35.28;;
21233;SDS011;10774;42.178;26.578;2023-02-17T00:24:13;57.00;;;35.42;;
21233;SDS011;10774;42.178;26.578;2023-02-17T00:26:39;61.60;;;37.72;;
21233;SDS011;10774;42.178;26.578;2023-02-17T00:29:04;66.30;;;41.65;;
21233;SDS011;10774;42.178;26.578;2023-02-17T00:31:29;72.43;;;47.67;;
21233;SDS011;10774;42.178;26.578;2023-02-17T00:33:55;68.38;;;44.97;;
21233;SDS011;10774;42.178;26.578;2023-02-17T00:36:20;62.97;;;40.47;;
21233;SDS011;10774;42.178;26.578;2023-02-17T00:38:46;45.95;;;31.00;;
21233;SDS011;10774;42.178;26.578;2023-02-17T00:41:13;41.40;;;28.45;;
21233;SDS011;10774;42.178;26.578;2023-02-17T00:43:38;38.72;;;26.67;;
21233;SDS011;10774;42.178;26.578;2023-02-17T00:46:04;41.47;;;27.70;;
21233;SDS011;10774;42.178;26.578;2023-02-17T00:48:30;43.45;;;29.23;;
21233;SDS011;10774;42.178;26.578;2023-02-17T00:50:56;46.53;;;29.63;;
21233;SDS011;10774;42.178;26.578;2023-02-17T00:53:21;50.78;;;30.77;;
21233;SDS011;10774;42.178;26.578;2023-02-17T00:55:47;49.28;;;30.95;;
21233;SDS011;10774;42.178;26.578;2023-02-17T00:58:14;47.22;;;30.45;;
21233;SDS011;10774;42.178;26.578;2023-02-17T01:03:14;47.95;;;31.23;;
21233;SDS011;10774;42.178;26.578;2023-02-17T01:05:44;44.63;;;30.10;;
21233;SDS011;10774;42.178;26.578;2023-02-17T01:08:10;43.88;;;30.05;;
21233;SDS011;10774;42.178;26.578;2023-02-17T01:10:37;44.03;;;29.67;;
21233;SDS011;10774;42.178;26.578;2023-02-17T01:13:04;45.20;;;30.17;;
21233;SDS011;10774;42.178;26.578;2023-02-17T01:15:30;46.40;;;29.88;;
21233;SDS011;10774;42.178;26.578;2023-02-17T01:17:57;44.90;;;29.00;;
21233;SDS011;10774;42.178;26.578;2023-02-17T01:20:22;59.47;;;34.53;;
21233;SDS011;10774;42.178;26.578;2023-02-17T01:22:48;56.83;;;34.10;;
21233;SDS011;10774;42.178;26.578;2023-02-17T01:25:13;52.63;;;34.65;;
21233;SDS011;10774;42.178;26.578;2023-02-17T01:27:38;51.58;;;32.75;;
21233;SDS011;10774;42.178;26.578;2023-02-17T01:30:04;48.28;;;30.80;;
21233;SDS011;10774;42.178;26.578;2023-02-17T01:32:30;49.20;;;32.25;;
21233;SDS011;10774;42.178;26.578;2023-02-17T01:34:55;44.33;;;29.17;;
21233;SDS011;10774;42.178;26.578;2023-02-17T01:37:21;47.03;;;30.23;;
21233;SDS011;10774;42.178;26.578;2023-02-17T01:39:46;46.30;;;30.55;;
21233;SDS011;10774;42.178;26.578;2023-02-17T01:42:15;45.65;;;29.38;;
21233;SDS011;10774;42.178;26.578;2023-02-17T01:50:14;45.20;;;30.23;;
21233;SDS011;10774;42.178;26.578;2023-02-17T01:52:41;49.20;;;32.67;;
21233;SDS011;10774;42.178;26.578;2023-02-17T01:55:09;55.47;;;34.80;;
21233;SDS011;10774;42.178;26.578;2023-02-17T01:57:37;51.78;;;34.80;;
21233;SDS011;10774;42.178;26.578;2023-02-17T02:00:05;46.75;;;32.60;;
21233;SDS011;10774;42.178;26.578;2023-02-17T02:02:33;48.17;;;33.25;;
21233;SDS011;10774;42.178;26.578;2023-02-17T02:04:59;50.95;;;33.88;;
21233;SDS011;10774;42.178;26.578;2023-02-17T02:07:25;54.83;;;36.10;;
21233;SDS011;10774;42.178;26.578;2023-02-17T02:09:57;51.45;;;34.92;;
21233;SDS011;10774;42.178;26.578;2023-02-17T02:14:51;49.53;;;34.30;;
21233;SDS011;10774;42.178;26.578;2023-02-17T02:38:55;49.83;;;32.70;;
21233;SDS011;10774;42.178;26.578;2023-02-17T02:41:44;45.92;;;30.25;;
21233;SDS011;10774;42.178;26.578;2023-02-17T02:44:15;52.65;;;33.95;;
21233;SDS011;10774;42.178;26.578;2023-02-17T02:46:44;46.35;;;29.70;;
21233;SDS011;10774;42.178;26.578;2023-02-17T02:49:09;41.92;;;27.52;;
21233;SDS011;10774;42.178;26.578;2023-02-17T03:08:10;40.38;;;27.27;;
21233;SDS011;10774;42.178;26.578;2023-02-17T03:10:43;43.53;;;29.30;;
21233;SDS011;10774;42.178;26.578;2023-02-17T03:13:11;44.78;;;29.70;;
21233;SDS011;10774;42.178;26.578;2023-02-17T03:15:36;43.75;;;28.58;;
21233;SDS011;10774;42.178;26.578;2023-02-17T03:18:02;43.70;;;27.45;;
21233;SDS011;10774;42.178;26.578;2023-02-17T03:20:29;39.15;;;26.55;;
21233;SDS011;10774;42.178;26.578;2023-02-17T03:22:59;49.55;;;30.73;;
21233;SDS011;10774;42.178;26.578;2023-02-17T03:25:24;48.30;;;31.20;;
21233;SDS011;10774;42.178;26.578;2023-02-17T03:27:50;50.38;;;31.33;;
21233;SDS011;10774;42.178;26.578;2023-02-17T03:30:15;51.00;;;32.78;;
21233;SDS011;10774;42.178;26.578;2023-02-17T03:32:41;49.55;;;32.17;;
21233;SDS011;10774;42.178;26.578;2023-02-17T03:35:06;53.83;;;32.90;;
21233;SDS011;10774;42.178;26.578;2023-02-17T03:37:32;54.40;;;33.85;;
21233;SDS011;10774;42.178;26.578;2023-02-17T03:39:58;54.45;;;32.50;;
21233;SDS011;10774;42.178;26.578;2023-02-17T03:42:23;53.65;;;33.10;;
21233;SDS011;10774;42.178;26.578;2023-02-17T03:44:49;60.55;;;32.67;;
21233;SDS011;10774;42.178;26.578;2023-02-17T03:47:14;56.00;;;33.00;;
21233;SDS011;10774;42.178;26.578;2023-02-17T03:49:39;50.17;;;32.92;;
21233;SDS011;10774;42.178;26.578;2023-02-17T03:52:05;54.38;;;33.30;;
21233;SDS011;10774;42.178;26.578;2023-02-17T03:54:30;51.47;;;32.05;;
21233;SDS011;10774;42.178;26.578;2023-02-17T03:56:56;51.10;;;32.53;;
21233;SDS011;10774;42.178;26.578;2023-02-17T03:59:23;51.42;;;32.92;;
21233;SDS011;10774;42.178;26.578;2023-02-17T04:01:48;51.40;;;32.50;;
21233;SDS011;10774;42.178;26.578;2023-02-17T04:04:14;49.72;;;29.98;;
21233;SDS011;10774;42.178;26.578;2023-02-17T04:06:39;52.45;;;31.73;;
21233;SDS011;10774;42.178;26.578;2023-02-17T04:09:05;54.83;;;33.03;;
21233;SDS011;10774;42.178;26.578;2023-02-17T04:11:30;53.70;;;33.85;;
21233;SDS011;10774;42.178;26.578;2023-02-17T04:13:55;50.95;;;33.58;;
21233;SDS011;10774;42.178;26.578;2023-02-17T04:16:21;55.60;;;34.38;;
21233;SDS011;10774;42.178;26.578;2023-02-17T04:18:46;49.20;;;32.83;;
21233;SDS011;10774;42.178;26.578;2023-02-17T04:21:12;51.58;;;32.63;;
21233;SDS011;10774;42.178;26.578;2023-02-17T04:23:37;51.33;;;31.90;;
21233;SDS011;10774;42.178;26.578;2023-02-17T04:26:04;58.15;;;38.58;;
21233;SDS011;10774;42.178;26.578;2023-02-17T04:28:30;70.03;;;45.67;;
21233;SDS011;10774;42.178;26.578;2023-02-17T04:30:56;75.93;;;47.67;;
21233;SDS011;10774;42.178;26.578;2023-02-17T04:33:23;72.13;;;49.60;;
21233;SDS011;10774;42.178;26.578;2023-02-17T04:35:48;79.90;;;53.83;;
21233;SDS011;10774;42.178;26.578;2023-02-17T04:38:14;102.85;;;67.75;;
21233;SDS011;10774;42.178;26.578;2023-02-17T04:40:40;97.03;;;64.00;;
21233;SDS011;10774;42.178;26.578;2023-02-17T04:43:05;87.85;;;61.83;;
21233;SDS011;10774;42.178;26.578;2023-02-17T04:45:32;79.32;;;50.90;;
21233;SDS011;10774;42.178;26.578;2023-02-17T04:47:59;72.47;;;48.30;;
21233;SDS011;10774;42.178;26.578;2023-02-17T04:50:24;72.03;;;46.55;;
21233;SDS011;10774;42.178;26.578;2023-02-17T04:52:50;69.55;;;46.55;;
21233;SDS011;10774;42.178;26.578;2023-02-17T04:55:15;70.65;;;44.95;;
21233;SDS011;10774;42.178;26.578;2023-02-17T04:57:41;62.65;;;42.67;;
21233;SDS011;10774;42.178;26.578;2023-02-17T05:00:07;72.10;;;44.08;;
21233;SDS011;10774;42.178;26.578;2023-02-17T05:02:33;67.85;;;41.97;;
21233;SDS011;10774;42.178;26.578;2023-02-17T05:04:58;62.80;;;40.78;;
21233;SDS011;10774;42.178;26.578;2023-02-17T05:07:24;73.93;;;46.60;;
21233;SDS011;10774;42.178;26.578;2023-02-17T05:09:49;69.72;;;42.47;;
21233;SDS011;10774;42.178;26.578;2023-02-17T05:12:15;66.55;;;39.85;;
21233;SDS011;10774;42.178;26.578;2023-02-17T05:14:40;68.82;;;43.42;;
21233;SDS011;10774;42.178;26.578;2023-02-17T05:17:06;61.65;;;37.13;;
21233;SDS011;10774;42.178;26.578;2023-02-17T05:19:31;67.38;;;40.50;;
21233;SDS011;10774;42.178;26.578;2023-02-17T05:21:57;52.85;;;33.67;;
21233;SDS011;10774;42.178;26.578;2023-02-17T05:24:22;49.08;;;32.80;;
21233;SDS011;10774;42.178;26.578;2023-02-17T05:26:47;72.10;;;45.40;;
21233;SDS011;10774;42.178;26.578;2023-02-17T05:29:13;76.22;;;44.65;;
21233;SDS011;10774;42.178;26.578;2023-02-17T05:31:38;57.15;;;34.70;;
21233;SDS011;10774;42.178;26.578;2023-02-17T05:34:04;54.08;;;36.42;;
21233;SDS011;10774;42.178;26.578;2023-02-17T05:36:29;51.13;;;31.40;;
21233;SDS011;10774;42.178;26.578;2023-02-17T05:38:54;60.17;;;36.33;;
21233;SDS011;10774;42.178;26.578;2023-02-17T05:41:20;70.18;;;45.10;;
21233;SDS011;10774;42.178;26.578;2023-02-17T05:43:46;71.55;;;45.30;;
21233;SDS011;10774;42.178;26.578;2023-02-17T05:46:12;72.25;;;46.25;;
21233;SDS011;10774;42.178;26.578;2023-02-17T05:48:38;93.68;;;55.30;;
21233;SDS011;10774;42.178;26.578;2023-02-17T05:51:03;99.47;;;55.88;;
21233;SDS011;10774;42.178;26.578;2023-02-17T05:53:29;74.38;;;46.03;;
21233;SDS011;10774;42.178;26.578;2023-02-17T05:55:55;84.38;;;54.28;;
21233;SDS011;10774;42.178;26.578;2023-02-17T05:58:20;100.28;;;60.38;;
21233;SDS011;10774;42.178;26.578;2023-02-17T06:00:46;133.82;;;73.63;;
21233;SDS011;10774;42.178;26.578;2023-02-17T06:03:12;149.98;;;82.78;;
21233;SDS011;10774;42.178;26.578;2023-02-17T06:05:38;150.95;;;82.03;;
21233;SDS011;10774;42.178;26.578;2023-02-17T06:08:05;173.27;;;91.38;;
21233;SDS011;10774;42.178;26.578;2023-02-17T06:10:31;213.68;;;120.05;;
21233;SDS011;10774;42.178;26.578;2023-02-17T06:12:56;175.77;;;102.30;;
21233;SDS011;10774;42.178;26.578;2023-02-17T06:15:22;155.93;;;89.22;;
21233;SDS011;10774;42.178;26.578;2023-02-17T06:17:47;145.48;;;92.07;;
21233;SDS011;10774;42.178;26.578;2023-02-17T06:20:13;158.75;;;92.93;;
21233;SDS011;10774;42.178;26.578;2023-02-17T06:22:39;180.18;;;99.63;;
21233;SDS011;10774;42.178;26.578;2023-02-17T06:25:05;174.20;;;89.88;;
21233;SDS011;10774;42.178;26.578;2023-02-17T06:27:31;142.32;;;78.75;;
21233;SDS011;10774;42.178;26.578;2023-02-17T06:29:56;406.90;;;277.38;;
21233;SDS011;10774;42.178;26.578;2023-02-17T06:32:22;199.75;;;117.82;;
21233;SDS011;10774;42.178;26.578;2023-02-17T06:34:47;141.30;;;85.60;;
21233;SDS011;10774;42.178;26.578;2023-02-17T06:37:13;152.63;;;87.47;;
21233;SDS011;10774;42.178;26.578;2023-02-17T06:39:38;158.63;;;92.18;;
21233;SDS011;10774;42.178;26.578;2023-02-17T06:42:03;164.25;;;94.22;;
21233;SDS011;10774;42.178;26.578;2023-02-17T06:44:29;218.40;;;114.93;;
21233;SDS011;10774;42.178;26.578;2023-02-17T06:46:55;218.00;;;119.30;;
21233;SDS011;10774;42.178;26.578;2023-02-17T06:49:20;203.93;;;110.53;;
21233;SDS011;10774;42.178;26.578;2023-02-17T06:51:46;140.60;;;75.72;;
21233;SDS011;10774;42.178;26.578;2023-02-17T06:54:11;83.25;;;47.30;;
21233;SDS011;10774;42.178;26.578;2023-02-17T06:56:37;62.10;;;38.03;;
21233;SDS011;10774;42.178;26.578;2023-02-17T06:59:02;57.10;;;34.33;;
21233;SDS011;10774;42.178;26.578;2023-02-17T07:01:28;69.75;;;39.10;;
21233;SDS011;10774;42.178;26.578;2023-02-17T07:03:54;67.60;;;40.42;;
21233;SDS011;10774;42.178;26.578;2023-02-17T07:06:20;50.47;;;32.63;;
21233;SDS011;10774;42.178;26.578;2023-02-17T07:08:47;63.13;;;36.22;;
21233;SDS011;10774;42.178;26.578;2023-02-17T07:11:13;48.60;;;31.15;;
21233;SDS011;10774;42.178;26.578;2023-02-17T07:13:39;52.75;;;31.42;;
21233;SDS011;10774;42.178;26.578;2023-02-17T07:16:05;49.47;;;29.63;;
21233;SDS011;10774;42.178;26.578;2023-02-17T07:18:32;48.50;;;27.13;;
21233;SDS011;10774;42.178;26.578;2023-02-17T07:20:57;55.42;;;31.50;;
21233;SDS011;10774;42.178;26.578;2023-02-17T07:23:23;54.67;;;30.65;;
21233;SDS011;10774;42.178;26.578;2023-02-17T07:25:48;41.45;;;27.63;;
21233;SDS011;10774;42.178;26.578;2023-02-17T07:28:14;50.60;;;28.65;;
21233;SDS011;10774;42.178;26.578;2023-02-17T07:30:40;63.78;;;34.22;;
21233;SDS011;10774;42.178;26.578;2023-02-17T07:33:07;58.95;;;31.42;;
21233;SDS011;10774;42.178;26.578;2023-02-17T07:35:33;61.95;;;32.95;;
21233;SDS011;10774;42.178;26.578;2023-02-17T07:37:59;57.53;;;31.13;;
21233;SDS011;10774;42.178;26.578;2023-02-17T07:40:26;41.47;;;27.13;;
21233;SDS011;10774;42.178;26.578;2023-02-17T07:42:52;47.15;;;29.00;;
21233;SDS011;10774;42.178;26.578;2023-02-17T07:45:17;49.28;;;29.23;;
21233;SDS011;10774;42.178;26.578;2023-02-17T07:47:43;42.65;;;28.73;;
21233;SDS011;10774;42.178;26.578;2023-02-17T07:50:08;75.03;;;36.17;;
21233;SDS011;10774;42.178;26.578;2023-02-17T07:52:34;53.50;;;30.73;;
21233;SDS011;10774;42.178;26.578;2023-02-17T07:55:00;42.17;;;26.75;;
21233;SDS011;10774;42.178;26.578;2023-02-17T07:57:26;53.63;;;29.55;;
21233;SDS011;10774;42.178;26.578;2023-02-17T07:59:51;81.68;;;37.15;;
21233;SDS011;10774;42.178;26.578;2023-02-17T08:02:17;62.47;;;31.77;;
21233;SDS011;10774;42.178;26.578;2023-02-17T08:04:42;44.78;;;27.77;;
21233;SDS011;10774;42.178;26.578;2023-02-17T08:07:08;54.85;;;25.42;;
21233;SDS011;10774;42.178;26.578;2023-02-17T08:09:34;40.70;;;25.50;;
21233;SDS011;10774;42.178;26.578;2023-02-17T08:12:18;36.17;;;24.60;;
21233;SDS011;10774;42.178;26.578;2023-02-17T08:15:06;37.90;;;24.43;;
21233;SDS011;10774;42.178;26.578;2023-02-17T08:17:33;38.50;;;24.77;;
21233;SDS011;10774;42.178;26.578;2023-02-17T08:19:59;39.47;;;26.58;;
21233;SDS011;10774;42.178;26.578;2023-02-17T08:22:24;41.83;;;26.25;;
21233;SDS011;10774;42.178;26.578;2023-02-17T08:24:50;37.80;;;22.50;;
21233;SDS011;10774;42.178;26.578;2023-02-17T08:27:16;40.15;;;24.55;;
21233;SDS011;10774;42.178;26.578;2023-02-17T08:29:43;37.67;;;23.50;;
21233;SDS011;10774;42.178;26.578;2023-02-17T08:32:09;34.75;;;20.63;;
21233;SDS011;10774;42.178;26.578;2023-02-17T08:34:34;26.48;;;19.40;;
21233;SDS011;10774;42.178;26.578;2023-02-17T08:37:00;32.05;;;19.15;;
21233;SDS011;10774;42.178;26.578;2023-02-17T08:39:28;27.45;;;19.73;;
21233;SDS011;10774;42.178;26.578;2023-02-17T08:41:54;34.80;;;20.15;;
21233;SDS011;10774;42.178;26.578;2023-02-17T08:44:19;36.28;;;21.88;;
21233;SDS011;10774;42.178;26.578;2023-02-17T08:46:46;39.78;;;24.15;;
21233;SDS011;10774;42.178;26.578;2023-02-17T08:49:14;67.00;;;35.53;;
21233;SDS011;10774;42.178;26.578;2023-02-17T08:51:40;25.77;;;18.75;;
21233;SDS011;10774;42.178;26.578;2023-02-17T08:54:06;41.50;;;26.33;;
21233;SDS011;10774;42.178;26.578;2023-02-17T08:56:34;23.60;;;17.40;;
21233;SDS011;10774;42.178;26.578;2023-02-17T08:59:01;23.77;;;17.58;;
21233;SDS011;10774;42.178;26.578;2023-02-17T09:01:27;29.38;;;18.63;;
21233;SDS011;10774;42.178;26.578;2023-02-17T09:03:53;28.45;;;18.02;;
21233;SDS011;10774;42.178;26.578;2023-02-17T09:06:21;26.00;;;18.17;;
21233;SDS011;10774;42.178;26.578;2023-02-17T09:08:47;23.35;;;17.60;;
21233;SDS011;10774;42.178;26.578;2023-02-17T09:11:13;25.02;;;18.02;;
21233;SDS011;10774;42.178;26.578;2023-02-17T09:13:42;44.05;;;23.20;;
21233;SDS011;10774;42.178;26.578;2023-02-17T09:16:09;34.72;;;20.08;;
21233;SDS011;10774;42.178;26.578;2023-02-17T09:18:34;26.35;;;18.15;;
21233;SDS011;10774;42.178;26.578;2023-02-17T09:21:10;25.48;;;17.70;;
21233;SDS011;10774;42.178;26.578;2023-02-17T09:23:37;36.90;;;21.45;;
21233;SDS011;10774;42.178;26.578;2023-02-17T09:26:04;24.13;;;16.45;;
21233;SDS011;10774;42.178;26.578;2023-02-17T09:28:32;41.47;;;23.38;;
21233;SDS011;10774;42.178;26.578;2023-02-17T09:30:58;27.92;;;18.05;;
21233;SDS011;10774;42.178;26.578;2023-02-17T09:33:23;23.98;;;16.88;;
21233;SDS011;10774;42.178;26.578;2023-02-17T09:35:49;29.67;;;20.05;;
21233;SDS011;10774;42.178;26.578;2023-02-17T09:38:14;22.00;;;16.58;;
21233;SDS011;10774;42.178;26.578;2023-02-17T09:43:14;22.85;;;16.58;;
21233;SDS011;10774;42.178;26.578;2023-02-17T09:45:43;24.50;;;17.35;;
21233;SDS011;10774;42.178;26.578;2023-02-17T09:48:23;20.88;;;14.50;;
21233;SDS011;10774;42.178;26.578;2023-02-17T09:50:54;20.73;;;14.15;;
21233;SDS011;10774;42.178;26.578;2023-02-17T09:53:39;23.35;;;15.25;;
21233;SDS011;10774;42.178;26.578;2023-02-17T09:56:12;18.65;;;12.93;;
21233;SDS011;10774;42.178;26.578;2023-02-17T09:58:42;19.52;;;13.70;;
21233;SDS011;10774;42.178;26.578;2023-02-17T10:01:24;21.50;;;14.10;;
21233;SDS011;10774;42.178;26.578;2023-02-17T10:04:01;22.88;;;15.88;;
21233;SDS011;10774;42.178;26.578;2023-02-17T10:06:33;23.48;;;14.93;;
21233;SDS011;10774;42.178;26.578;2023-02-17T10:14:28;18.58;;;12.82;;
21233;SDS011;10774;42.178;26.578;2023-02-17T10:17:02;26.35;;;13.45;;
21233;SDS011;10774;42.178;26.578;2023-02-17T10:19:43;20.35;;;13.18;;
21233;SDS011;10774;42.178;26.578;2023-02-17T10:22:14;19.85;;;12.88;;
21233;SDS011;10774;42.178;26.578;2023-02-17T10:24:42;16.80;;;12.85;;
21233;SDS011;10774;42.178;26.578;2023-02-17T10:27:32;15.90;;;11.35;;
21233;SDS011;10774;42.178;26.578;2023-02-17T10:32:58;15.10;;;10.57;;
21233;SDS011;10774;42.178;26.578;2023-02-17T10:35:38;16.30;;;11.43;;
21233;SDS011;10774;42.178;26.578;2023-02-17T10:41:07;18.02;;;11.30;;
21233;SDS011;10774;42.178;26.578;2023-02-17T10:43:37;16.13;;;10.68;;
21233;SDS011;10774;42.178;26.578;2023-02-17T10:46:04;17.77;;;10.20;;
21233;SDS011;10774;42.178;26.578;2023-02-17T10:48:33;16.40;;;11.02;;
21233;SDS011;10774;42.178;26.578;2023-02-17T10:51:03;14.02;;;11.07;;
21233;SDS011;10774;42.178;26.578;2023-02-17T10:53:33;15.52;;;9.73;;
21233;SDS011;10774;42.178;26.578;2023-02-17T10:56:03;18.30;;;11.10;;
21233;SDS011;10774;42.178;26.578;2023-02-17T10:58:51;15.90;;;11.60;;
21233;SDS011;10774;42.178;26.578;2023-02-17T11:01:21;15.95;;;10.25;;
21233;SDS011;10774;42.178;26.578;2023-02-17T11:04:03;16.50;;;11.43;;
21233;SDS011;10774;42.178;26.578;2023-02-17T11:06:31;16.25;;;11.05;;
21233;SDS011;10774;42.178;26.578;2023-02-17T11:09:05;15.63;;;10.68;;
21233;SDS011;10774;42.178;26.578;2023-02-17T11:11:46;15.30;;;10.63;;
21233;SDS011;10774;42.178;26.578;2023-02-17T11:14:25;13.93;;;9.68;;
21233;SDS011;10774;42.178;26.578;2023-02-17T11:17:00;15.18;;;10.48;;
21233;SDS011;10774;42.178;26.578;2023-02-17T11:19:32;12.40;;;9.45;;
21233;SDS011;10774;42.178;26.578;2023-02-17T11:22:00;14.20;;;10.38;;
21233;SDS011;10774;42.178;26.578;2023-02-17T11:24:29;16.65;;;10.93;;
21233;SDS011;10774;42.178;26.578;2023-02-17T11:26:57;13.05;;;9.27;;
21233;SDS011;10774;42.178;26.578;2023-02-17T11:29:24;10.82;;;8.48;;
21233;SDS011;10774;42.178;26.578;2023-02-17T11:32:10;17.05;;;10.45;;
21233;SDS011;10774;42.178;26.578;2023-02-17T11:34:37;14.50;;;10.27;;
21233;SDS011;10774;42.178;26.578;2023-02-17T11:39:37;14.95;;;9.02;;
21233;SDS011;10774;42.178;26.578;2023-02-17T11:44:40;13.02;;;8.98;;
21233;SDS011;10774;42.178;26.578;2023-02-17T11:55:17;12.25;;;8.70;;
21233;SDS011;10774;42.178;26.578;2023-02-17T11:58:10;12.05;;;8.77;;
21233;SDS011;10774;42.178;26.578;2023-02-17T12:17:13;11.75;;;7.70;;
21233;SDS011;10774;42.178;26.578;2023-02-17T12:22:35;12.43;;;7.85;;
21233;SDS011;10774;42.178;26.578;2023-02-17T12:30:37;9.18;;;6.25;;
21233;SDS011;10774;42.178;26.578;2023-02-17T12:36:04;23.98;;;13.10;;
21233;SDS011;10774;42.178;26.578;2023-02-17T12:38:56;10.60;;;7.32;;
21233;SDS011;10774;42.178;26.578;2023-02-17T12:41:30;15.65;;;11.25;;
21233;SDS011;10774;42.178;26.578;2023-02-17T12:44:13;9.55;;;7.05;;
21233;SDS011;10774;42.178;26.578;2023-02-17T12:46:45;11.88;;;8.13;;
21233;SDS011;10774;42.178;26.578;2023-02-17T12:49:21;14.40;;;9.68;;
21233;SDS011;10774;42.178;26.578;2023-02-17T12:51:54;9.60;;;7.28;;
21233;SDS011;10774;42.178;26.578;2023-02-17T12:59:50;8.85;;;6.03;;
21233;SDS011;10774;42.178;26.578;2023-02-17T13:02:17;10.32;;;6.00;;
21233;SDS011;10774;42.178;26.578;2023-02-17T13:04:46;9.77;;;6.60;;
21233;SDS011;10774;42.178;26.578;2023-02-17T13:10:32;10.43;;;8.10;;
21233;SDS011;10774;42.178;26.578;2023-02-17T13:13:01;10.43;;;7.72;;
21233;SDS011;10774;42.178;26.578;2023-02-17T13:15:34;10.50;;;7.25;;
21233;SDS011;10774;42.178;26.578;2023-02-17T13:18:05;15.57;;;9.43;;
21233;SDS011;10774;42.178;26.578;2023-02-17T13:23:25;8.85;;;6.55;;
21233;SDS011;10774;42.178;26.578;2023-02-17T13:26:10;10.85;;;7.95;;
21233;SDS011;10774;42.178;26.578;2023-02-17T13:28:37;14.27;;;8.43;;
21233;SDS011;10774;42.178;26.578;2023-02-17T13:31:17;9.63;;;7.80;;
21233;SDS011;10774;42.178;26.578;2023-02-17T13:33:51;13.60;;;7.50;;
21233;SDS011;10774;42.178;26.578;2023-02-17T13:36:21;10.00;;;7.40;;
21233;SDS011;10774;42.178;26.578;2023-02-17T13:38:51;8.70;;;5.90;;
21233;SDS011;10774;42.178;26.578;2023-02-17T13:41:47;9.70;;;6.78;;
21233;SDS011;10774;42.178;26.578;2023-02-17T13:44:32;5.93;;;4.82;;
21233;SDS011;10774;42.178;26.578;2023-02-17T13:49:52;10.98;;;7.60;;
21233;SDS011;10774;42.178;26.578;2023-02-17T13:52:21;13.27;;;10.30;;
21233;SDS011;10774;42.178;26.578;2023-02-17T13:54:55;9.13;;;6.30;;
21233;SDS011;10774;42.178;26.578;2023-02-17T13:57:30;12.05;;;7.57;;
21233;SDS011;10774;42.178;26.578;2023-02-17T14:00:30;17.35;;;10.10;;
21233;SDS011;10774;42.178;26.578;2023-02-17T14:02:51;17.35;;;10.40;;
21233;SDS011;10774;42.178;26.578;2023-02-17T14:07:47;8.07;;;5.45;;
21233;SDS011;10774;42.178;26.578;2023-02-17T14:10:17;9.45;;;6.50;;
21233;SDS011;10774;42.178;26.578;2023-02-17T14:12:45;12.05;;;7.72;;
21233;SDS011;10774;42.178;26.578;2023-02-17T14:15:20;11.40;;;7.30;;
21233;SDS011;10774;42.178;26.578;2023-02-17T14:17:47;10.05;;;7.95;;
21233;SDS011;10774;42.178;26.578;2023-02-17T14:23:11;12.77;;;8.65;;
21233;SDS011;10774;42.178;26.578;2023-02-17T14:25:42;13.48;;;8.75;;
21233;SDS011;10774;42.178;26.578;2023-02-17T14:28:17;8.25;;;6.07;;
21233;SDS011;10774;42.178;26.578;2023-02-17T14:30:42;11.10;;;6.80;;
21233;SDS011;10774;42.178;26.578;2023-02-17T14:36:03;11.80;;;7.82;;
21233;SDS011;10774;42.178;26.578;2023-02-17T14:38:34;13.40;;;7.43;;
21233;SDS011;10774;42.178;26.578;2023-02-17T14:41:06;12.85;;;7.82;;
21233;SDS011;10774;42.178;26.578;2023-02-17T14:43:35;11.35;;;7.57;;
21233;SDS011;10774;42.178;26.578;2023-02-17T14:46:01;9.20;;;6.63;;
21233;SDS011;10774;42.178;26.578;2023-02-17T14:48:27;17.58;;;11.63;;
21233;SDS011;10774;42.178;26.578;2023-02-17T14:50:52;21.35;;;12.57;;
21233;SDS011;10774;42.178;26.578;2023-02-17T14:55:50;23.73;;;16.45;;
21233;SDS011;10774;42.178;26.578;2023-02-17T14:58:22;24.45;;;14.38;;
21233;SDS011;10774;42.178;26.578;2023-02-17T15:00:50;18.23;;;11.55;;
21233;SDS011;10774;42.178;26.578;2023-02-17T15:03:15;20.23;;;12.82;;
21233;SDS011;10774;42.178;26.578;2023-02-17T15:05:41;16.33;;;10.40;;
21233;SDS011;10774;42.178;26.578;2023-02-17T15:08:11;15.68;;;9.38;;
21233;SDS011;10774;42.178;26.578;2023-02-17T15:10:38;14.55;;;10.40;;
21233;SDS011;10774;42.178;26.578;2023-02-17T15:13:04;14.88;;;9.68;;
21233;SDS011;10774;42.178;26.578;2023-02-17T15:15:30;16.90;;;9.70;;
21233;SDS011;10774;42.178;26.578;2023-02-17T15:17:55;14.23;;;10.13;;
21233;SDS011;10774;42.178;26.578;2023-02-17T15:20:20;18.17;;;11.27;;
21233;SDS011;10774;42.178;26.578;2023-02-17T15:22:46;30.60;;;17.48;;
21233;SDS011;10774;42.178;26.578;2023-02-17T15:25:17;19.40;;;13.50;;
21233;SDS011;10774;42.178;26.578;2023-02-17T15:27:48;36.40;;;23.63;;
21233;SDS011;10774;42.178;26.578;2023-02-17T15:30:15;36.53;;;22.88;;
21233;SDS011;10774;42.178;26.578;2023-02-17T15:32:41;29.30;;;18.58;;
21233;SDS011;10774;42.178;26.578;2023-02-17T15:35:18;27.83;;;17.50;;
21233;SDS011;10774;42.178;26.578;2023-02-17T15:37:46;35.78;;;24.38;;
21233;SDS011;10774;42.178;26.578;2023-02-17T15:40:12;35.15;;;19.02;;
21233;SDS011;10774;42.178;26.578;2023-02-17T15:42:43;38.00;;;20.55;;
21233;SDS011;10774;42.178;26.578;2023-02-17T15:45:14;43.28;;;24.38;;
21233;SDS011;10774;42.178;26.578;2023-02-17T15:47:42;37.28;;;21.42;;
21233;SDS011;10774;42.178;26.578;2023-02-17T15:50:13;32.10;;;21.30;;
21233;SDS011;10774;42.178;26.578;2023-02-17T15:55:09;30.95;;;19.55;;
21233;SDS011;10774;42.178;26.578;2023-02-17T15:57:35;30.63;;;21.27;;
21233;SDS011;10774;42.178;26.578;2023-02-17T16:00:05;33.70;;;22.92;;
21233;SDS011;10774;42.178;26.578;2023-02-17T16:02:40;65.78;;;39.63;;
21233;SDS011;10774;42.178;26.578;2023-02-17T16:05:05;81.68;;;51.00;;
21233;SDS011;10774;42.178;26.578;2023-02-17T16:07:30;68.40;;;42.17;;
21233;SDS011;10774;42.178;26.578;2023-02-17T16:09:56;79.63;;;44.80;;
21233;SDS011;10774;42.178;26.578;2023-02-17T16:12:21;79.88;;;47.88;;
21233;SDS011;10774;42.178;26.578;2023-02-17T16:14:50;63.95;;;40.22;;
21233;SDS011;10774;42.178;26.578;2023-02-17T16:17:16;29.73;;;19.67;;
21233;SDS011;10774;42.178;26.578;2023-02-17T16:19:41;29.50;;;17.63;;
21233;SDS011;10774;42.178;26.578;2023-02-17T16:22:07;31.40;;;19.50;;
21233;SDS011;10774;42.178;26.578;2023-02-17T16:24:32;25.00;;;15.77;;
21233;SDS011;10774;42.178;26.578;2023-02-17T16:26:58;29.20;;;17.30;;
21233;SDS011;10774;42.178;26.578;2023-02-17T16:29:24;42.45;;;24.15;;